sensor_id;sensor_type;location;lat;lon;timestamp;temperature;humidity
9776;DHT22;4927;52.472;13.108;2022-12-07T00:00:26;2.50;99.90
9776;DHT22;4927;52.472;13.108;2022-12-07T00:05:33;2.40;99.90
9776;DHT22;4927;52.472;13.108;2022-12-07T00:10:40;2.30;99.90
9776;DHT22;4927;52.472;13.108;2022-12-07T00:15:46;2.20;99.90
9776;DHT22;4927;52.472;13.108;2022-12-07T00:20:52;2.00;99.90
9776;DHT22;4927;52.472;13.108;2022-12-07T00:26:07;1.80;99.90
9776;DHT22;4927;52.472;13.108;2022-12-07T00:31:11;1.80;99.90
9776;DHT22;4927;52.472;13.108;2022-12-07T00:36:17;1.80;99.90
9776;DHT22;4927;52.472;13.108;2022-12-07T00:41:24;1.80;99.90
9776;DHT22;4927;52.472;13.108;2022-12-07T00:46:33;1.80;99.90
9776;DHT22;4927;52.472;13.108;2022-12-07T00:51:40;1.80;99.90
9776;DHT22;4927;52.472;13.108;2022-12-07T00:56:46;1.80;99.90
9776;DHT22;4927;52.472;13.108;2022-12-07T01:01:54;1.70;99.90
9776;DHT22;4927;52.472;13.108;2022-12-07T01:07:00;1.80;99.90
9776;DHT22;4927;52.472;13.108;2022-12-07T01:12:06;1.70;99.90
9776;DHT22;4927;52.472;13.108;2022-12-07T01:17:16;1.70;99.90
9776;DHT22;4927;52.472;13.108;2022-12-07T01:22:23;1.70;99.90
9776;DHT22;4927;52.472;13.108;2022-12-07T01:27:33;1.70;99.90
9776;DHT22;4927;52.472;13.108;2022-12-07T01:32:39;1.70;99.90
9776;DHT22;4927;52.472;13.108;2022-12-07T01:37:45;1.60;99.90
9776;DHT22;4927;52.472;13.108;2022-12-07T01:42:52;1.50;99.90
9776;DHT22;4927;52.472;13.108;2022-12-07T01:47:59;1.50;99.90
9776;DHT22;4927;52.472;13.108;2022-12-07T01:53:09;1.50;99.90
9776;DHT22;4927;52.472;13.108;2022-12-07T01:58:15;1.50;99.90
9776;DHT22;4927;52.472;13.108;2022-12-07T02:03:28;1.50;99.90
9776;DHT22;4927;52.472;13.108;2022-12-07T02:08:33;1.50;99.90
9776;DHT22;4927;52.472;13.108;2022-12-07T02:13:39;1.50;99.90
9776;DHT22;4927;52.472;13.108;2022-12-07T02:24:36;1.40;99.90
9776;DHT22;4927;52.472;13.108;2022-12-07T02:29:44;1.40;99.90
9776;DHT22;4927;52.472;13.108;2022-12-07T02:34:49;1.40;99.90
9776;DHT22;4927;52.472;13.108;2022-12-07T02:39:59;1.40;99.90
9776;DHT22;4927;52.472;13.108;2022-12-07T02:45:04;1.40;99.90
9776;DHT22;4927;52.472;13.108;2022-12-07T02:50:12;1.40;99.90
9776;DHT22;4927;52.472;13.108;2022-12-07T02:55:18;1.40;99.90
9776;DHT22;4927;52.472;13.108;2022-12-07T03:00:24;1.40;99.90
9776;DHT22;4927;52.472;13.108;2022-12-07T03:10:56;1.40;99.90
9776;DHT22;4927;52.472;13.108;2022-12-07T03:16:14;1.40;99.90
9776;DHT22;4927;52.472;13.108;2022-12-07T03:21:20;1.40;99.90
9776;DHT22;4927;52.472;13.108;2022-12-07T03:26:28;1.50;99.90
9776;DHT22;4927;52.472;13.108;2022-12-07T03:31:37;1.50;99.90
9776;DHT22;4927;52.472;13.108;2022-12-07T03:36:48;1.50;99.90
9776;DHT22;4927;52.472;13.108;2022-12-07T03:41:53;1.50;99.90
9776;DHT22;4927;52.472;13.108;2022-12-07T03:47:04;1.50;99.90
9776;DHT22;4927;52.472;13.108;2022-12-07T03:52:31;1.50;99.90
9776;DHT22;4927;52.472;13.108;2022-12-07T03:57:34;1.50;99.90
9776;DHT22;4927;52.472;13.108;2022-12-07T04:02:41;1.50;99.90
9776;DHT22;4927;52.472;13.108;2022-12-07T04:07:51;1.50;99.90
9776;DHT22;4927;52.472;13.108;2022-12-07T04:12:57;1.60;99.90
9776;DHT22;4927;52.472;13.108;2022-12-07T04:18:03;1.60;99.90
9776;DHT22;4927;52.472;13.108;2022-12-07T04:23:09;1.60;99.90
9776;DHT22;4927;52.472;13.108;2022-12-07T04:28:16;1.60;99.90
9776;DHT22;4927;52.472;13.108;2022-12-07T04:33:20;1.60;99.90
9776;DHT22;4927;52.472;13.108;2022-12-07T04:38:30;1.60;99.90
9776;DHT22;4927;52.472;13.108;2022-12-07T04:43:40;1.60;99.90
9776;DHT22;4927;52.472;13.108;2022-12-07T04:48:52;1.70;99.90
9776;DHT22;4927;52.472;13.108;2022-12-07T04:53:57;1.80;99.90
9776;DHT22;4927;52.472;13.108;2022-12-07T04:59:09;1.90;99.90
9776;DHT22;4927;52.472;13.108;2022-12-07T05:04:14;1.90;99.90
9776;DHT22;4927;52.472;13.108;2022-12-07T05:09:20;1.90;99.90
9776;DHT22;4927;52.472;13.108;2022-12-07T05:14:26;2.00;99.90
9776;DHT22;4927;52.472;13.108;2022-12-07T05:19:31;2.10;99.90
9776;DHT22;4927;52.472;13.108;2022-12-07T05:24:35;2.10;99.90
9776;DHT22;4927;52.472;13.108;2022-12-07T05:29:52;2.20;99.90
9776;DHT22;4927;52.472;13.108;2022-12-07T05:34:59;2.20;99.90
9776;DHT22;4927;52.472;13.108;2022-12-07T05:40:06;2.30;99.90
9776;DHT22;4927;52.472;13.108;2022-12-07T05:45:12;2.30;99.90
9776;DHT22;4927;52.472;13.108;2022-12-07T05:50:18;2.40;99.90
9776;DHT22;4927;52.472;13.108;2022-12-07T05:55:25;2.40;99.90
9776;DHT22;4927;52.472;13.108;2022-12-07T06:00:32;2.50;99.90
9776;DHT22;4927;52.472;13.108;2022-12-07T06:05:43;2.50;99.90
9776;DHT22;4927;52.472;13.108;2022-12-07T06:10:47;2.50;99.90
9776;DHT22;4927;52.472;13.108;2022-12-07T06:15:53;2.60;99.90
9776;DHT22;4927;52.472;13.108;2022-12-07T06:20:59;2.60;99.90
9776;DHT22;4927;52.472;13.108;2022-12-07T06:26:06;2.60;99.90
9776;DHT22;4927;52.472;13.108;2022-12-07T06:31:12;2.70;99.90
9776;DHT22;4927;52.472;13.108;2022-12-07T06:36:18;2.70;99.90
9776;DHT22;4927;52.472;13.108;2022-12-07T06:41:24;2.70;99.90
9776;DHT22;4927;52.472;13.108;2022-12-07T06:46:31;2.90;99.90
9776;DHT22;4927;52.472;13.108;2022-12-07T06:51:36;2.90;99.90
9776;DHT22;4927;52.472;13.108;2022-12-07T06:56:42;3.10;99.90
9776;DHT22;4927;52.472;13.108;2022-12-07T07:01:48;3.00;99.90
9776;DHT22;4927;52.472;13.108;2022-12-07T07:06:52;3.00;99.90
9776;DHT22;4927;52.472;13.108;2022-12-07T07:11:59;2.90;99.90
9776;DHT22;4927;52.472;13.108;2022-12-07T07:17:10;3.00;99.90
9776;DHT22;4927;52.472;13.108;2022-12-07T07:22:17;3.00;99.90
9776;DHT22;4927;52.472;13.108;2022-12-07T07:27:23;3.00;99.90
9776;DHT22;4927;52.472;13.108;2022-12-07T07:32:27;3.00;99.90
9776;DHT22;4927;52.472;13.108;2022-12-07T07:37:33;3.10;99.90
9776;DHT22;4927;52.472;13.108;2022-12-07T07:42:40;3.10;99.90
9776;DHT22;4927;52.472;13.108;2022-12-07T07:47:46;3.10;99.90
9776;DHT22;4927;52.472;13.108;2022-12-07T07:52:53;3.00;99.90
9776;DHT22;4927;52.472;13.108;2022-12-07T07:58:00;3.00;99.90
9776;DHT22;4927;52.472;13.108;2022-12-07T08:03:05;3.10;99.90
9776;DHT22;4927;52.472;13.108;2022-12-07T08:08:16;3.10;99.90
9776;DHT22;4927;52.472;13.108;2022-12-07T08:13:26;3.10;99.90
9776;DHT22;4927;52.472;13.108;2022-12-07T08:18:36;3.10;99.90
9776;DHT22;4927;52.472;13.108;2022-12-07T08:23:41;3.10;99.90
9776;DHT22;4927;52.472;13.108;2022-12-07T08:28:48;3.10;99.90
9776;DHT22;4927;52.472;13.108;2022-12-07T08:33:52;3.20;99.90
9776;DHT22;4927;52.472;13.108;2022-12-07T08:38:56;3.30;99.90
9776;DHT22;4927;52.472;13.108;2022-12-07T08:44:04;3.20;99.90
9776;DHT22;4927;52.472;13.108;2022-12-07T08:49:12;3.30;99.90
9776;DHT22;4927;52.472;13.108;2022-12-07T08:54:17;3.20;99.90
9776;DHT22;4927;52.472;13.108;2022-12-07T08:59:23;3.20;99.90
9776;DHT22;4927;52.472;13.108;2022-12-07T09:04:29;3.20;99.90
9776;DHT22;4927;52.472;13.108;2022-12-07T09:09:35;3.20;99.90
9776;DHT22;4927;52.472;13.108;2022-12-07T09:14:42;3.30;99.90
9776;DHT22;4927;52.472;13.108;2022-12-07T09:19:53;3.30;99.90
9776;DHT22;4927;52.472;13.108;2022-12-07T09:25:00;3.30;99.90
9776;DHT22;4927;52.472;13.108;2022-12-07T09:30:07;3.30;99.90
9776;DHT22;4927;52.472;13.108;2022-12-07T09:35:13;3.30;99.90
9776;DHT22;4927;52.472;13.108;2022-12-07T09:40:20;3.30;99.90
9776;DHT22;4927;52.472;13.108;2022-12-07T09:45:40;3.30;99.90
9776;DHT22;4927;52.472;13.108;2022-12-07T09:50:46;3.20;99.90
9776;DHT22;4927;52.472;13.108;2022-12-07T09:55:56;3.20;99.90
9776;DHT22;4927;52.472;13.108;2022-12-07T10:01:21;3.20;99.90
9776;DHT22;4927;52.472;13.108;2022-12-07T10:06:27;3.30;99.90
9776;DHT22;4927;52.472;13.108;2022-12-07T10:11:33;3.30;99.90
9776;DHT22;4927;52.472;13.108;2022-12-07T10:16:40;3.40;99.90
9776;DHT22;4927;52.472;13.108;2022-12-07T10:27:02;3.40;99.90
9776;DHT22;4927;52.472;13.108;2022-12-07T10:32:33;3.50;99.90
9776;DHT22;4927;52.472;13.108;2022-12-07T10:37:40;3.60;99.90
9776;DHT22;4927;52.472;13.108;2022-12-07T10:43:02;3.60;99.90
9776;DHT22;4927;52.472;13.108;2022-12-07T10:48:13;3.70;99.90
9776;DHT22;4927;52.472;13.108;2022-12-07T10:53:32;3.70;99.90
9776;DHT22;4927;52.472;13.108;2022-12-07T11:09:46;3.80;99.90
9776;DHT22;4927;52.472;13.108;2022-12-07T11:15:03;3.80;99.90
9776;DHT22;4927;52.472;13.108;2022-12-07T11:20:13;3.80;99.90
9776;DHT22;4927;52.472;13.108;2022-12-07T11:25:49;3.90;99.90
9776;DHT22;4927;52.472;13.108;2022-12-07T11:31:01;3.80;99.90
9776;DHT22;4927;52.472;13.108;2022-12-07T11:36:29;3.70;99.90
9776;DHT22;4927;52.472;13.108;2022-12-07T11:41:28;3.80;99.90
9776;DHT22;4927;52.472;13.108;2022-12-07T11:46:44;4.00;99.90
9776;DHT22;4927;52.472;13.108;2022-12-07T11:51:47;4.00;99.90
9776;DHT22;4927;52.472;13.108;2022-12-07T11:56:52;4.10;99.90
9776;DHT22;4927;52.472;13.108;2022-12-07T12:02:16;4.10;99.90
9776;DHT22;4927;52.472;13.108;2022-12-07T12:07:22;4.20;99.90
9776;DHT22;4927;52.472;13.108;2022-12-07T12:12:39;4.10;99.90
9776;DHT22;4927;52.472;13.108;2022-12-07T12:17:47;4.20;99.90
9776;DHT22;4927;52.472;13.108;2022-12-07T12:22:52;4.20;99.90
9776;DHT22;4927;52.472;13.108;2022-12-07T12:27:57;4.20;99.90
9776;DHT22;4927;52.472;13.108;2022-12-07T12:33:05;4.30;99.90
9776;DHT22;4927;52.472;13.108;2022-12-07T12:43:42;4.60;99.90
9776;DHT22;4927;52.472;13.108;2022-12-07T12:48:49;4.50;99.90
9776;DHT22;4927;52.472;13.108;2022-12-07T12:53:53;4.40;99.90
9776;DHT22;4927;52.472;13.108;2022-12-07T12:59:23;4.50;99.90
9776;DHT22;4927;52.472;13.108;2022-12-07T13:04:30;4.50;99.90
9776;DHT22;4927;52.472;13.108;2022-12-07T13:09:34;4.50;99.90
9776;DHT22;4927;52.472;13.108;2022-12-07T13:14:42;4.50;99.90
9776;DHT22;4927;52.472;13.108;2022-12-07T13:19:54;4.60;99.90
9776;DHT22;4927;52.472;13.108;2022-12-07T13:25:08;4.60;99.90
9776;DHT22;4927;52.472;13.108;2022-12-07T13:30:14;4.40;99.90
9776;DHT22;4927;52.472;13.108;2022-12-07T13:35:31;4.30;99.90
9776;DHT22;4927;52.472;13.108;2022-12-07T13:40:38;4.10;99.90
9776;DHT22;4927;52.472;13.108;2022-12-07T13:45:45;4.10;99.90
9776;DHT22;4927;52.472;13.108;2022-12-07T13:50:55;4.10;99.90
9776;DHT22;4927;52.472;13.108;2022-12-07T13:56:01;4.10;99.90
9776;DHT22;4927;52.472;13.108;2022-12-07T14:01:07;4.00;99.90
9776;DHT22;4927;52.472;13.108;2022-12-07T14:06:17;4.00;99.90
9776;DHT22;4927;52.472;13.108;2022-12-07T14:11:19;3.90;99.90
9776;DHT22;4927;52.472;13.108;2022-12-07T14:16:30;3.90;99.90
9776;DHT22;4927;52.472;13.108;2022-12-07T14:21:33;3.90;99.90
9776;DHT22;4927;52.472;13.108;2022-12-07T14:26:41;3.80;99.90
9776;DHT22;4927;52.472;13.108;2022-12-07T14:31:47;3.70;99.90
9776;DHT22;4927;52.472;13.108;2022-12-07T14:36:52;3.70;99.90
9776;DHT22;4927;52.472;13.108;2022-12-07T14:41:58;3.50;99.90
9776;DHT22;4927;52.472;13.108;2022-12-07T14:47:05;3.50;99.90
9776;DHT22;4927;52.472;13.108;2022-12-07T14:52:15;3.50;99.90
9776;DHT22;4927;52.472;13.108;2022-12-07T14:57:19;3.30;99.90
9776;DHT22;4927;52.472;13.108;2022-12-07T15:02:26;3.30;99.90
9776;DHT22;4927;52.472;13.108;2022-12-07T15:07:32;3.30;99.90
9776;DHT22;4927;52.472;13.108;2022-12-07T15:12:38;3.30;99.90
9776;DHT22;4927;52.472;13.108;2022-12-07T15:17:45;3.20;99.90
9776;DHT22;4927;52.472;13.108;2022-12-07T15:22:51;3.30;99.90
9776;DHT22;4927;52.472;13.108;2022-12-07T15:27:57;3.30;99.90
9776;DHT22;4927;52.472;13.108;2022-12-07T15:33:03;3.20;99.90
9776;DHT22;4927;52.472;13.108;2022-12-07T15:38:08;3.20;99.90
9776;DHT22;4927;52.472;13.108;2022-12-07T15:43:13;2.90;99.90
9776;DHT22;4927;52.472;13.108;2022-12-07T15:48:25;2.90;99.90
9776;DHT22;4927;52.472;13.108;2022-12-07T15:53:31;2.80;99.90
9776;DHT22;4927;52.472;13.108;2022-12-07T15:58:37;2.70;99.90
9776;DHT22;4927;52.472;13.108;2022-12-07T16:03:42;2.60;99.90
9776;DHT22;4927;52.472;13.108;2022-12-07T16:08:48;2.60;99.90
9776;DHT22;4927;52.472;13.108;2022-12-07T16:13:55;2.50;99.90
9776;DHT22;4927;52.472;13.108;2022-12-07T16:19:01;2.40;99.90
9776;DHT22;4927;52.472;13.108;2022-12-07T16:24:08;2.40;99.90
9776;DHT22;4927;52.472;13.108;2022-12-07T16:29:12;2.30;99.90
9776;DHT22;4927;52.472;13.108;2022-12-07T16:34:17;2.30;99.90
9776;DHT22;4927;52.472;13.108;2022-12-07T16:39:24;2.30;99.90
9776;DHT22;4927;52.472;13.108;2022-12-07T16:44:30;2.30;99.90
9776;DHT22;4927;52.472;13.108;2022-12-07T16:49:36;2.10;99.90
9776;DHT22;4927;52.472;13.108;2022-12-07T16:54:42;2.10;99.90
9776;DHT22;4927;52.472;13.108;2022-12-07T16:59:49;2.00;99.90
9776;DHT22;4927;52.472;13.108;2022-12-07T17:04:55;2.00;99.90
9776;DHT22;4927;52.472;13.108;2022-12-07T17:10:01;2.00;99.90
9776;DHT22;4927;52.472;13.108;2022-12-07T17:15:09;1.90;99.90
9776;DHT22;4927;52.472;13.108;2022-12-07T17:20:23;1.90;99.90
9776;DHT22;4927;52.472;13.108;2022-12-07T17:25:29;1.80;99.90
9776;DHT22;4927;52.472;13.108;2022-12-07T17:30:34;1.80;99.90
9776;DHT22;4927;52.472;13.108;2022-12-07T17:35:40;1.80;99.90
9776;DHT22;4927;52.472;13.108;2022-12-07T17:40:46;1.70;99.90
9776;DHT22;4927;52.472;13.108;2022-12-07T17:45:52;1.60;99.90
9776;DHT22;4927;52.472;13.108;2022-12-07T17:50:59;1.50;99.90
9776;DHT22;4927;52.472;13.108;2022-12-07T17:56:11;1.50;99.90
9776;DHT22;4927;52.472;13.108;2022-12-07T18:01:17;1.50;99.90
9776;DHT22;4927;52.472;13.108;2022-12-07T18:06:24;1.40;99.90
9776;DHT22;4927;52.472;13.108;2022-12-07T18:11:32;1.30;99.90
9776;DHT22;4927;52.472;13.108;2022-12-07T18:16:38;1.30;99.90
9776;DHT22;4927;52.472;13.108;2022-12-07T18:32:58;1.10;99.90
9776;DHT22;4927;52.472;13.108;2022-12-07T18:38:05;0.90;99.90
9776;DHT22;4927;52.472;13.108;2022-12-07T18:43:11;0.90;99.90
9776;DHT22;4927;52.472;13.108;2022-12-07T18:48:18;0.90;99.90
9776;DHT22;4927;52.472;13.108;2022-12-07T18:53:44;0.90;99.90
9776;DHT22;4927;52.472;13.108;2022-12-07T18:58:55;0.90;99.90
9776;DHT22;4927;52.472;13.108;2022-12-07T19:04:06;0.90;99.90
9776;DHT22;4927;52.472;13.108;2022-12-07T19:14:47;0.80;99.90
9776;DHT22;4927;52.472;13.108;2022-12-07T19:19:57;0.60;99.90
9776;DHT22;4927;52.472;13.108;2022-12-07T19:25:04;0.60;99.90
9776;DHT22;4927;52.472;13.108;2022-12-07T19:30:11;0.60;99.90
9776;DHT22;4927;52.472;13.108;2022-12-07T19:35:49;0.60;99.90
9776;DHT22;4927;52.472;13.108;2022-12-07T19:42:06;0.50;99.90
9776;DHT22;4927;52.472;13.108;2022-12-07T19:47:16;0.40;99.90
9776;DHT22;4927;52.472;13.108;2022-12-07T19:52:27;0.40;99.90
9776;DHT22;4927;52.472;13.108;2022-12-07T19:57:33;0.40;99.90
9776;DHT22;4927;52.472;13.108;2022-12-07T20:02:39;0.30;99.90
9776;DHT22;4927;52.472;13.108;2022-12-07T20:07:46;0.30;99.90
9776;DHT22;4927;52.472;13.108;2022-12-07T20:12:52;0.20;99.90
9776;DHT22;4927;52.472;13.108;2022-12-07T20:18:16;0.10;99.90
9776;DHT22;4927;52.472;13.108;2022-12-07T20:23:24;0.10;99.90
9776;DHT22;4927;52.472;13.108;2022-12-07T20:28:29;0.10;99.90
9776;DHT22;4927;52.472;13.108;2022-12-07T20:33:36;0.00;99.90
9776;DHT22;4927;52.472;13.108;2022-12-07T20:38:46;0.00;99.90
9776;DHT22;4927;52.472;13.108;2022-12-07T20:43:56;0.00;99.90
9776;DHT22;4927;52.472;13.108;2022-12-07T20:49:03;-0.10;99.90
9776;DHT22;4927;52.472;13.108;2022-12-07T20:54:10;-0.10;99.90
9776;DHT22;4927;52.472;13.108;2022-12-07T20:59:16;-0.10;99.90
9776;DHT22;4927;52.472;13.108;2022-12-07T21:04:22;0.00;99.90
9776;DHT22;4927;52.472;13.108;2022-12-07T21:09:28;0.00;99.90
9776;DHT22;4927;52.472;13.108;2022-12-07T21:14:38;0.00;99.90
9776;DHT22;4927;52.472;13.108;2022-12-07T21:19:44;0.00;99.90
9776;DHT22;4927;52.472;13.108;2022-12-07T21:24:50;-0.10;99.90
9776;DHT22;4927;52.472;13.108;2022-12-07T21:41:55;-0.20;99.90
9776;DHT22;4927;52.472;13.108;2022-12-07T21:47:02;-0.20;99.90
9776;DHT22;4927;52.472;13.108;2022-12-07T21:52:08;-0.30;99.90
9776;DHT22;4927;52.472;13.108;2022-12-07T21:57:15;-0.30;99.90
9776;DHT22;4927;52.472;13.108;2022-12-07T22:07:06;-0.50;99.90
9776;DHT22;4927;52.472;13.108;2022-12-07T22:23:55;-0.70;99.90
9776;DHT22;4927;52.472;13.108;2022-12-07T22:29:01;-0.70;99.90
9776;DHT22;4927;52.472;13.108;2022-12-07T22:34:13;-0.60;99.90
9776;DHT22;4927;52.472;13.108;2022-12-07T22:39:17;-0.60;99.90
9776;DHT22;4927;52.472;13.108;2022-12-07T22:44:24;-0.50;99.90
9776;DHT22;4927;52.472;13.108;2022-12-07T22:49:30;-0.50;99.90
9776;DHT22;4927;52.472;13.108;2022-12-07T22:54:34;-0.50;99.90
9776;DHT22;4927;52.472;13.108;2022-12-07T22:59:44;-0.40;99.90
9776;DHT22;4927;52.472;13.108;2022-12-07T23:04:51;-0.40;99.90
9776;DHT22;4927;52.472;13.108;2022-12-07T23:09:57;-0.30;99.90
9776;DHT22;4927;52.472;13.108;2022-12-07T23:15:04;-0.20;99.90
9776;DHT22;4927;52.472;13.108;2022-12-07T23:20:11;-0.30;99.90
9776;DHT22;4927;52.472;13.108;2022-12-07T23:25:18;-0.30;99.90
9776;DHT22;4927;52.472;13.108;2022-12-07T23:30:24;-0.30;99.90
9776;DHT22;4927;52.472;13.108;2022-12-07T23:35:31;-0.30;99.90
9776;DHT22;4927;52.472;13.108;2022-12-07T23:40:37;-0.30;99.90
9776;DHT22;4927;52.472;13.108;2022-12-07T23:45:44;-0.30;99.90
9776;DHT22;4927;52.472;13.108;2022-12-07T23:50:50;-0.20;99.90
9776;DHT22;4927;52.472;13.108;2022-12-07T23:55:56;-0.20;99.90
